Time;durP1;ratioP1;P1;durP2;ratioP2;P2;SDS_P1;SDS_P2;PMS_P1;PMS_P2;Temp;Humidity;BMP_temperature;BMP_pressure;BME280_temperature;BME280_humidity;BME280_pressure;Samples;Min_cycle;Max_cycle;Signal;HPM_P1;HPM_P2
2021/10/27 00:01:46;;;;;;;;;3.25;3.25;;;;;14.77;67.97;102227.84;4944250;28;45319;-60
2021/10/27 00:04:12;;;;;;;;;7.00;6.00;;;;;14.76;68.37;102226.09;4944057;28;45429;-60
2021/10/27 00:06:38;;;;;;;;;4.75;4.50;;;;;14.75;68.26;102235.00;4944075;28;45143;-60
2021/10/27 00:09:04;;;;;;;;;4.00;4.00;;;;;14.73;68.23;102234.25;4943467;28;45275;-60
2021/10/27 00:11:30;;;;;;;;;7.50;5.75;;;;;14.72;68.39;102227.22;4943945;28;45413;-60
2021/10/27 00:13:56;;;;;;;;;4.00;4.00;;;;;14.70;68.28;102226.47;4943854;28;45437;-60
2021/10/27 00:16:21;;;;;;;;;7.00;6.25;;;;;14.70;68.16;102226.47;4943808;28;45449;-61
2021/10/27 00:18:47;;;;;;;;;5.00;5.00;;;;;14.71;68.61;102233.47;4943817;28;46176;-60
2021/10/27 00:21:13;;;;;;;;;4.25;4.25;;;;;14.70;68.35;102233.56;4943823;28;45321;-60
2021/10/27 00:23:39;;;;;;;;;4.00;4.00;;;;;14.69;68.21;102237.13;4943497;28;45393;-60
2021/10/27 00:26:05;;;;;;;;;7.00;3.00;;;;;14.67;68.27;102241.66;4943996;28;45327;-60
2021/10/27 00:28:31;;;;;;;;;6.50;4.00;;;;;14.65;68.32;102235.59;4943333;28;45278;-60
2021/10/27 00:30:57;;;;;;;;;6.25;4.25;;;;;14.64;68.64;102240.03;4943688;28;45240;-60
2021/10/27 00:33:22;;;;;;;;;8.00;4.00;;;;;14.65;68.42;102244.41;4943694;28;45247;-61
2021/10/27 00:35:48;;;;;;;;;4.50;3.75;;;;;14.64;68.32;102242.69;4943733;28;45233;-59
2021/10/27 00:38:14;;;;;;;;;7.25;4.75;;;;;14.64;68.64;102239.19;4943103;28;45209;-59
2021/10/27 00:40:39;;;;;;;;;5.25;4.00;;;;;14.63;68.55;102242.78;4943314;28;45487;-59
2021/10/27 00:43:05;;;;;;;;;5.00;4.00;;;;;14.64;68.42;102244.47;4942170;28;45385;-61
2021/10/27 00:45:32;;;;;;;;;4.50;4.50;;;;;14.64;68.45;102240.03;4943605;28;45272;-61
2021/10/27 00:47:57;;;;;;;;;5.00;5.00;;;;;14.64;68.40;102242.69;4943186;28;45282;-60
2021/10/27 00:50:23;;;;;;;;;4.00;4.00;;;;;14.67;68.32;102249.63;4943344;28;45322;-60
2021/10/27 00:52:49;;;;;;;;;3.75;3.75;;;;;14.66;68.41;102242.59;4942966;28;45305;-61
2021/10/27 00:55:14;;;;;;;;;4.50;4.50;;;;;14.66;68.24;102246.09;4943379;28;45422;-60
2021/10/27 00:57:40;;;;;;;;;4.00;3.50;;;;;14.66;68.37;102240.81;4942954;28;46010;-60
2021/10/27 01:00:07;;;;;;;;;6.00;4.00;;;;;14.65;68.30;102244.41;4943454;28;45551;-60
2021/10/27 01:02:33;;;;;;;;;3.00;3.00;;;;;14.66;68.35;102247.91;4943181;28;45524;-60
2021/10/27 01:04:59;;;;;;;;;3.75;3.00;;;;;14.64;68.46;102240.03;4943302;28;45236;-60
2021/10/27 01:07:25;;;;;;;;;4.00;3.00;;;;;14.62;68.45;102239.25;4942655;28;45276;-60
2021/10/27 01:09:51;;;;;;;;;8.50;4.75;;;;;14.60;68.34;102227.84;4943108;28;45291;-60
2021/10/27 01:12:16;;;;;;;;;9.75;5.00;;;;;14.59;68.69;102231.44;4942969;28;45310;-60
2021/10/27 01:14:45;;;;;;;;;6.00;5.00;;;;;14.59;68.62;102226.16;4943067;28;45491;-60
2021/10/27 01:17:13;;;;;;;;;7.75;4.75;;;;;14.56;68.62;102231.63;4941736;28;47975;-60
2021/10/27 01:19:48;;;;;;;;;3.00;3.00;;;;;14.55;68.95;102229.91;4942850;28;45287;-60
2021/10/27 01:22:15;;;;;;;;;5.00;4.50;;;;;14.52;68.71;102230.91;4942803;28;45314;-60
2021/10/27 01:24:40;;;;;;;;;7.50;4.00;;;;;14.51;69.06;102228.34;4942920;28;45468;-60
2021/10/27 01:27:07;;;;;;;;;4.75;3.00;;;;;14.50;68.92;102232.78;4942633;28;45308;-60
2021/10/27 01:29:33;;;;;;;;;6.00;4.75;;;;;14.49;69.00;102233.72;4942768;28;45589;-60
2021/10/27 01:31:59;;;;;;;;;6.50;5.25;;;;;14.48;69.08;102229.38;4942904;28;45442;-60
2021/10/27 01:34:25;;;;;;;;;5.75;5.00;;;;;14.46;68.83;102227.75;4957594;28;45478;-60
2021/10/27 01:36:50;;;;;;;;;5.25;5.00;;;;;14.44;69.05;102217.16;4942310;28;46209;-60
2021/10/27 01:39:16;;;;;;;;;4.25;4.00;;;;;14.42;69.10;102218.19;4942638;28;45167;-60
2021/10/27 01:41:41;;;;;;;;;6.00;4.25;;;;;14.40;68.77;102222.72;4942828;28;45358;-60
2021/10/27 01:44:07;;;;;;;;;9.00;4.00;;;;;14.38;69.17;102221.94;4942754;28;45393;-60
2021/10/27 01:46:35;;;;;;;;;3.75;3.75;;;;;14.38;69.02;102216.66;4942457;28;45325;-61
2021/10/27 01:49:05;;;;;;;;;4.25;4.25;;;;;14.38;69.01;102214.00;4942386;28;45443;-60
2021/10/27 01:51:32;;;;;;;;;2.00;2.00;;;;;14.37;69.09;102210.47;4942825;28;45416;-60
2021/10/27 01:53:58;;;;;;;;;5.00;4.00;;;;;14.36;68.96;102219.34;4942349;28;45715;-60
2021/10/27 01:56:24;;;;;;;;;5.00;4.00;;;;;14.35;68.97;102208.84;4942263;28;46038;-60
2021/10/27 01:58:50;;;;;;;;;5.25;4.00;;;;;14.33;68.95;102208.06;4942655;28;45448;-61
2021/10/27 02:01:16;;;;;;;;;2.25;2.25;;;;;14.32;68.86;102211.66;4945993;28;45279;-61
2021/10/27 02:03:43;;;;;;;;;6.00;3.75;;;;;14.30;69.05;102209.09;4945931;28;45400;-61
2021/10/27 02:06:09;;;;;;;;;4.00;3.00;;;;;14.30;69.14;102187.88;4945717;28;45414;-61
2021/10/27 02:08:34;;;;;;;;;3.25;3.00;;;;;14.30;69.01;102198.47;4945318;28;45464;-61
2021/10/27 02:11:00;;;;;;;;;6.00;5.00;;;;;14.29;68.98;102187.94;4946212;28;45303;-60
2021/10/27 02:13:25;;;;;;;;;11.75;4.00;;;;;14.28;69.00;102187.06;4945653;28;45413;-60
2021/10/27 02:15:51;;;;;;;;;2.75;2.75;;;;;14.28;69.07;102183.56;4945730;28;46037;-60
2021/10/27 02:18:16;;;;;;;;;2.50;2.25;;;;;14.27;69.05;102187.16;4945594;28;45397;-60
2021/10/27 02:20:42;;;;;;;;;5.75;4.00;;;;;14.24;69.20;102186.41;4945821;28;45400;-59
2021/10/27 02:23:08;;;;;;;;;3.75;3.00;;;;;14.25;69.17;102184.59;4945355;28;45512;-60
2021/10/27 02:25:33;;;;;;;;;5.25;3.25;;;;;14.23;69.11;102186.47;4945574;28;46339;-61
2021/10/27 02:27:58;;;;;;;;;6.00;5.00;;;;;14.22;69.28;102195.38;4945395;28;45275;-60
2021/10/27 02:30:24;;;;;;;;;4.50;4.00;;;;;14.22;69.20;102201.53;4945756;28;45203;-60
2021/10/27 02:32:51;;;;;;;;;4.50;2.00;;;;;14.23;69.18;102200.59;4944219;28;45319;-60
2021/10/27 02:35:16;;;;;;;;;5.25;3.75;;;;;14.24;69.29;102206.75;4945397;28;45422;-60
2021/10/27 02:37:42;;;;;;;;;6.50;4.00;;;;;14.23;69.27;102199.72;4944986;28;45311;-59
2021/10/27 02:40:09;;;;;;;;;4.75;4.75;;;;;14.20;69.21;102199.88;4945582;28;45310;-59
2021/10/27 02:42:35;;;;;;;;;4.50;2.25;;;;;14.19;69.26;102193.72;4945297;28;45263;-59
2021/10/27 02:45:00;;;;;;;;;3.00;3.00;;;;;14.19;69.28;102187.56;4945447;28;45220;-60
2021/10/27 02:47:26;;;;;;;;;4.25;3.75;;;;;14.18;69.17;102196.44;4935272;28;45236;-60
2021/10/27 02:49:51;;;;;;;;;3.00;3.00;;;;;14.18;69.45;102189.34;4945524;28;45207;-59
2021/10/27 02:52:17;;;;;;;;;4.25;3.00;;;;;14.17;69.16;102197.38;4944981;28;45229;-60
2021/10/27 02:54:43;;;;;;;;;4.50;4.00;;;;;14.17;69.20;102197.38;4945178;28;47252;-61
2021/10/27 02:57:08;;;;;;;;;7.25;3.00;;;;;14.15;69.37;102196.63;4945104;28;45263;-60
2021/10/27 02:59:34;;;;;;;;;3.25;3.25;;;;;14.12;69.33;102194.97;4945339;28;45402;-61
2021/10/27 03:02:00;;;;;;;;;4.25;3.00;;;;;14.12;69.39;102192.31;4945054;28;45462;-60
2021/10/27 03:04:25;;;;;;;;;5.00;4.00;;;;;14.11;69.31;102197.69;4944996;28;45540;-60
2021/10/27 03:06:51;;;;;;;;;3.75;3.50;;;;;14.10;69.42;102199.50;4944488;28;45349;-59
2021/10/27 03:09:16;;;;;;;;;8.75;5.00;;;;;14.08;69.26;102192.56;4945057;28;45441;-59
2021/10/27 03:11:42;;;;;;;;;5.00;4.50;;;;;14.07;69.63;102190.84;4943876;28;45445;-60
2021/10/27 03:14:07;;;;;;;;;5.75;4.50;;;;;14.06;69.50;102184.69;4944907;28;45322;-61
2021/10/27 03:16:33;;;;;;;;;3.00;2.50;;;;;14.05;69.40;102188.25;4944693;28;45354;-60
2021/10/27 03:18:58;;;;;;;;;4.00;4.00;;;;;14.04;69.67;102180.38;4944810;28;45437;-60
2021/10/27 03:21:24;;;;;;;;;4.00;3.25;;;;;14.04;69.31;102178.59;4944301;28;45429;-60
2021/10/27 03:23:50;;;;;;;;;6.50;5.00;;;;;14.03;69.58;102176.03;4944254;28;45932;-59
2021/10/27 03:26:16;;;;;;;;;5.25;4.00;;;;;14.00;69.58;102165.59;4944519;28;45331;-61
2021/10/27 03:28:41;;;;;;;;;4.00;3.75;;;;;13.99;69.79;102167.38;4944962;28;45176;-60
2021/10/27 03:31:07;;;;;;;;;4.00;3.00;;;;;13.95;69.86;102169.31;4944770;28;45437;-60
2021/10/27 03:33:33;;;;;;;;;3.75;3.75;;;;;13.95;70.04;102171.13;4945011;28;45401;-60
2021/10/27 03:35:58;;;;;;;;;6.00;5.00;;;;;13.94;70.09;102167.59;4944381;28;45300;-61
2021/10/27 03:38:23;;;;;;;;;5.50;4.00;;;;;13.93;69.78;102168.56;4944356;28;45207;-60
2021/10/27 03:40:49;;;;;;;;;3.75;3.25;;;;;13.92;69.97;102173.94;4944529;28;45410;-60
2021/10/27 03:43:14;;;;;;;;;4.50;4.25;;;;;13.90;69.85;102166.06;4944437;28;46177;-60
2021/10/27 03:45:41;;;;;;;;;5.00;5.00;;;;;13.88;70.03;102165.25;4944293;28;45346;-60
2021/10/27 03:48:06;;;;;;;;;5.50;5.00;;;;;13.87;70.32;102168.84;4944476;28;45335;-61
2021/10/27 03:50:32;;;;;;;;;3.50;3.50;;;;;13.88;69.93;102175.00;4944247;28;45531;-60
2021/10/27 03:52:59;;;;;;;;;5.00;5.00;;;;;13.87;70.22;102168.00;4944019;28;45968;-61
2021/10/27 03:55:24;;;;;;;;;9.25;4.00;;;;;13.86;70.19;102166.28;4944276;28;45318;-60
2021/10/27 03:57:50;;;;;;;;;7.00;6.25;;;;;13.86;70.28;102176.88;4944239;28;45210;-59
2021/10/27 04:00:16;;;;;;;;;8.00;5.50;;;;;13.84;70.32;102176.97;4944339;28;45465;-59
2021/10/27 04:02:42;;;;;;;;;4.75;4.75;;;;;13.83;70.25;102177.91;4944069;28;45815;-60
2021/10/27 04:05:08;;;;;;;;;3.75;3.75;;;;;13.83;70.31;102171.75;4944087;28;45302;-60
2021/10/27 04:07:37;;;;;;;;;6.75;5.25;;;;;13.82;70.49;102170.84;4943923;28;45304;-60
2021/10/27 04:10:07;;;;;;;;;9.75;6.75;;;;;13.82;70.68;102176.16;4943890;28;45485;-60
2021/10/27 04:12:34;;;;;;;;;6.50;3.00;;;;;13.83;70.68;102171.75;4944083;28;46182;-60
2021/10/27 04:15:01;;;;;;;;;8.50;5.75;;;;;13.81;70.48;102163.84;4931013;28;45247;-60
2021/10/27 04:17:26;;;;;;;;;10.75;8.25;;;;;13.82;70.48;102172.66;4943703;28;45431;-60
2021/10/27 04:19:52;;;;;;;;;10.75;9.50;;;;;13.82;70.20;102167.34;4943743;28;45492;-59
2021/10/27 04:22:17;;;;;;;;;12.25;8.00;;;;;13.82;70.38;102176.16;4943000;28;45360;-59
2021/10/27 04:24:43;;;;;;;;;10.00;10.00;;;;;13.79;70.19;102173.66;4943576;28;45313;-59
2021/10/27 04:27:08;;;;;;;;;12.50;11.75;;;;;13.76;70.23;102175.63;4943729;28;45414;-60
2021/10/27 04:29:34;;;;;;;;;11.00;9.50;;;;;13.77;70.03;102178.19;4943617;28;45494;-59
2021/10/27 04:31:59;;;;;;;;;7.25;7.25;;;;;13.75;69.83;102179.22;4943866;28;45308;-60
2021/10/27 04:34:25;;;;;;;;;56.25;43.50;;;;;13.74;70.11;102188.94;4943410;28;45267;-59
2021/10/27 04:36:51;;;;;;;;;12.75;11.00;;;;;13.72;70.22;102187.28;4943485;28;45291;-59
2021/10/27 04:39:16;;;;;;;;;13.00;10.75;;;;;13.71;69.96;102188.22;4943200;28;45623;-59
2021/10/27 04:41:42;;;;;;;;;19.00;11.75;;;;;13.68;69.96;102189.25;4943207;28;46171;-60
2021/10/27 04:44:07;;;;;;;;;15.25;12.00;;;;;13.66;70.13;102191.09;4943350;28;45218;-59
2021/10/27 04:46:33;;;;;;;;;15.25;13.00;;;;;13.64;70.08;102190.31;4943359;28;45305;-61
2021/10/27 04:48:59;;;;;;;;;16.50;15.50;;;;;13.62;70.20;102187.75;4943389;28;45224;-59
2021/10/27 04:51:24;;;;;;;;;16.25;12.25;;;;;13.61;69.83;102190.47;4943570;28;45250;-60
2021/10/27 04:53:50;;;;;;;;;9.00;9.00;;;;;13.58;70.13;102183.53;4942901;28;45216;-60
2021/10/27 04:56:15;;;;;;;;;13.00;10.75;;;;;13.55;69.96;102191.63;4943327;28;45404;-60
2021/10/27 04:58:41;;;;;;;;;14.75;12.00;;;;;13.52;70.28;102197.09;4943320;28;45266;-60
2021/10/27 05:01:06;;;;;;;;;19.75;14.75;;;;;13.51;70.39;102187.44;4943335;28;45399;-60
2021/10/27 05:03:32;;;;;;;;;17.25;12.00;;;;;13.52;70.36;102196.22;4943042;28;45246;-59
2021/10/27 05:05:59;;;;;;;;;14.50;10.00;;;;;13.51;70.43;102191.84;4943407;28;45516;-60
2021/10/27 05:08:24;;;;;;;;;20.50;13.75;;;;;13.47;70.21;102193.78;4942853;28;45470;-60
2021/10/27 05:10:53;;;;;;;;;12.25;12.25;;;;;13.46;70.24;102188.56;4942965;28;46068;-59
2021/10/27 05:13:19;;;;;;;;;16.25;12.25;;;;;13.44;70.22;102186.00;4942684;28;45181;-59
2021/10/27 05:15:46;;;;;;;;;15.00;13.00;;;;;13.41;70.35;102184.34;4943036;28;45227;-59
2021/10/27 05:18:12;;;;;;;;;16.25;14.50;;;;;13.40;70.51;102179.13;4942623;28;45311;-59
2021/10/27 05:20:37;;;;;;;;;13.50;11.75;;;;;13.40;70.63;102181.78;4942907;28;46149;-60
2021/10/27 05:23:03;;;;;;;;;15.50;13.25;;;;;13.38;70.52;102183.66;4942478;28;45369;-61
2021/10/27 05:25:28;;;;;;;;;20.00;14.50;;;;;13.37;70.66;102185.44;4943034;28;45366;-60
2021/10/27 05:27:54;;;;;;;;;23.25;15.75;;;;;13.34;70.60;102177.63;4942756;28;45315;-59
2021/10/27 05:30:20;;;;;;;;;23.75;16.50;;;;;13.34;70.64;102180.28;4942682;28;46094;-59
2021/10/27 05:32:46;;;;;;;;;16.50;12.75;;;;;13.34;70.77;102180.28;4942626;28;45422;-59
2021/10/27 05:35:11;;;;;;;;;19.25;14.25;;;;;13.36;70.64;102182.88;4942180;28;45576;-59
2021/10/27 05:37:37;;;;;;;;;11.00;9.50;;;;;13.37;70.49;102177.50;4942399;28;45479;-60
2021/10/27 05:40:03;;;;;;;;;10.50;10.00;;;;;13.37;70.42;102174.84;4942362;28;45287;-59
2021/10/27 05:42:30;;;;;;;;;10.50;10.50;;;;;13.36;70.59;102177.56;4942547;28;45227;-59
2021/10/27 05:44:58;;;;;;;;;17.00;14.00;;;;;13.35;70.26;102176.72;4942666;28;45352;-59
2021/10/27 05:47:24;;;;;;;;;14.00;12.00;;;;;13.32;70.40;102182.13;4942511;28;45553;-59
2021/10/27 05:49:55;;;;;;;;;15.50;14.00;;;;;13.27;70.27;102175.34;4942601;28;45332;-59
2021/10/27 05:57:31;;;;;;;;;18.25;15.25;;;;;13.24;70.53;102175.50;4942407;28;45659;-60
2021/10/27 05:59:56;;;;;;;;;17.50;14.00;;;;;13.21;70.69;102170.38;4942226;28;45504;-59
2021/10/27 06:02:22;;;;;;;;;16.75;12.00;;;;;13.15;70.65;102163.53;4942152;28;45503;-59
2021/10/27 06:04:47;;;;;;;;;16.25;12.50;;;;;13.10;70.43;102166.38;4942448;28;45334;-61
2021/10/27 06:07:12;;;;;;;;;15.75;14.00;;;;;13.08;70.62;102170.03;4942171;28;45331;-60
2021/10/27 06:09:38;;;;;;;;;12.75;11.25;;;;;13.07;70.72;102174.47;4941993;28;45477;-59
2021/10/27 06:12:07;;;;;;;;;14.50;12.25;;;;;13.05;70.74;102180.78;4942012;28;45325;-60
2021/10/27 06:14:33;;;;;;;;;12.00;11.50;;;;;13.04;70.95;102176.41;4942257;28;45234;-59
2021/10/27 06:16:59;;;;;;;;;20.00;14.50;;;;;13.00;70.98;102174.84;4942114;28;45473;-60
2021/10/27 06:19:24;;;;;;;;;17.50;14.00;;;;;13.00;70.90;102173.03;4940775;28;45360;-59
2021/10/27 06:21:50;;;;;;;;;14.50;14.00;;;;;13.02;70.87;102173.81;4942019;28;45512;-59
2021/10/27 06:24:16;;;;;;;;;14.00;12.25;;;;;13.01;70.92;102173.91;4942302;28;45481;-60
2021/10/27 06:26:41;;;;;;;;;21.50;16.00;;;;;12.99;71.06;102170.47;4942010;28;45305;-59
2021/10/27 06:29:10;;;;;;;;;19.25;15.75;;;;;12.98;71.09;102174.06;4942040;28;45926;-60
2021/10/27 06:39:07;;;;;;;;;14.00;13.00;;;;;13.00;71.04;102166.91;4941410;28;45534;-59
2021/10/27 06:46:57;;;;;;;;;19.00;13.25;;;;;12.92;70.91;102185.75;4944331;28;45429;-60
2021/10/27 06:49:24;;;;;;;;;15.25;14.25;;;;;12.92;70.80;102180.47;4944795;28;46197;-60
2021/10/27 06:51:49;;;;;;;;;23.50;17.25;;;;;12.95;70.94;102193.53;4944731;28;45286;-61
2021/10/27 06:54:15;;;;;;;;;20.25;16.25;;;;;12.98;71.06;102200.50;4945134;28;45232;-60
2021/10/27 06:56:41;;;;;;;;;18.25;16.00;;;;;12.99;71.16;102184.56;4944870;28;45593;-59
2021/10/27 07:17:32;;;;;;;;;19.25;17.00;;;;;13.09;70.41;102219.38;4944703;28;45399;-61
2021/10/27 07:20:00;;;;;;;;;27.50;22.00;;;;;13.09;70.48;102222.88;4944270;28;46226;-59
2021/10/27 07:22:25;;;;;;;;;26.50;19.00;;;;;13.14;70.42;102225.31;4944521;28;45231;-60
2021/10/27 07:24:51;;;;;;;;;22.50;20.00;;;;;13.13;70.57;102223.59;4944578;28;45227;-59
2021/10/27 07:27:18;;;;;;;;;27.75;21.50;;;;;13.12;70.62;102225.41;4944335;28;45646;-59
2021/10/27 07:29:45;;;;;;;;;22.00;20.25;;;;;13.16;70.49;102223.44;4944428;28;45368;-59
2021/10/27 07:32:13;;;;;;;;;15.00;14.00;;;;;13.20;70.48;102224.22;4944340;28;45338;-60
2021/10/27 07:34:46;;;;;;;;;23.50;20.00;;;;;13.24;70.29;102226.63;4944495;28;45388;-59
2021/10/27 07:42:35;;;;;;;;;23.00;19.00;;;;;13.32;69.99;102243.00;4944046;28;45321;-59
2021/10/27 07:45:02;;;;;;;;;22.25;19.00;;;;;13.36;70.04;102243.75;4944447;28;45332;-59
2021/10/27 07:47:27;;;;;;;;;23.00;22.25;;;;;13.39;69.75;102255.03;4944255;28;45329;-60
2021/10/27 07:49:53;;;;;;;;;27.00;20.00;;;;;13.44;69.81;102246.88;4944157;28;45358;-60
2021/10/27 07:52:18;;;;;;;;;25.25;24.00;;;;;13.47;69.67;102246.72;4943793;28;45260;-59
2021/10/27 07:54:45;;;;;;;;;27.25;24.00;;;;;13.53;69.95;102248.25;4944234;28;45477;-60
2021/10/27 07:57:11;;;;;;;;;24.50;19.50;;;;;13.59;69.48;102245.31;4958174;28;45580;-59
2021/10/27 07:59:37;;;;;;;;;23.25;21.50;;;;;13.64;69.55;102248.56;4944062;28;45328;-59
2021/10/27 08:02:06;;;;;;;;;26.75;21.75;;;;;13.68;69.38;102253.66;4943831;28;45385;-59
2021/10/27 08:04:37;;;;;;;;;24.75;20.25;;;;;13.73;68.96;102260.50;4944102;28;45248;-59
2021/10/27 08:07:04;;;;;;;;;24.50;21.75;;;;;13.77;69.21;102262.09;4943801;28;45462;-59
2021/10/27 08:09:29;;;;;;;;;25.50;21.50;;;;;13.83;68.83;102264.44;4943960;28;46360;-60
2021/10/27 08:11:55;;;;;;;;;22.50;21.25;;;;;13.84;68.82;102253.78;4943783;28;45304;-60
2021/10/27 08:14:21;;;;;;;;;25.75;21.50;;;;;13.90;68.70;102263.19;4944214;28;45204;-59
2021/10/27 08:16:47;;;;;;;;;27.00;22.00;;;;;13.95;68.39;102264.69;4943710;28;45389;-60
2021/10/27 08:19:13;;;;;;;;;29.25;25.00;;;;;13.97;68.56;102252.22;4943956;28;46040;-60
2021/10/27 08:21:40;;;;;;;;;28.25;24.00;;;;;14.02;68.37;102254.66;4942152;28;45298;-59
2021/10/27 08:24:08;;;;;;;;;21.50;15.75;;;;;14.07;68.18;102247.34;4943799;28;45353;-60
2021/10/27 08:26:34;;;;;;;;;27.75;20.50;;;;;14.10;68.09;102241.88;4943673;28;45476;-59
2021/10/27 08:29:01;;;;;;;;;23.25;21.00;;;;;14.14;67.96;102240.81;4943636;28;46126;-60
2021/10/27 08:31:41;;;;;;;;;20.75;19.50;;;;;14.20;68.06;102245.78;4943533;28;45362;-59
2021/10/27 08:34:21;;;;;;;;;27.00;25.00;;;;;14.23;67.84;102240.34;4943662;28;45343;-60
2021/10/27 08:36:47;;;;;;;;;25.00;23.75;;;;;14.29;67.52;102239.16;4943280;28;45246;-60
2021/10/27 08:39:14;;;;;;;;;32.75;26.00;;;;;14.33;67.66;102237.22;4943263;28;45334;-60
2021/10/27 08:41:40;;;;;;;;;32.75;28.25;;;;;14.38;67.52;102237.84;4943427;28;45557;-60
2021/10/27 08:44:06;;;;;;;;;22.75;21.00;;;;;14.43;67.41;102235.81;4943556;28;45518;-61
2021/10/27 08:46:33;;;;;;;;;30.00;24.00;;;;;14.49;67.40;102238.19;4943478;28;45438;-61
2021/10/27 08:49:01;;;;;;;;;30.50;26.50;;;;;14.54;67.44;102240.59;4943339;28;45528;-61
2021/10/27 08:51:28;;;;;;;;;36.25;26.50;;;;;14.58;67.28;102237.69;4943270;28;45191;-60
2021/10/27 08:53:55;;;;;;;;;23.50;22.75;;;;;14.63;67.48;102240.13;4943221;28;45188;-60
2021/10/27 08:56:20;;;;;;;;;30.25;24.00;;;;;14.69;67.17;102242.44;4943433;28;45609;-61
2021/10/27 08:58:50;;;;;;;;;27.25;24.25;;;;;14.74;66.81;102238.59;4943108;28;45269;-61
2021/10/27 09:07:24;;;;;;;;;24.75;23.50;;;;;14.92;66.54;102231.44;4942974;28;45253;-60
2021/10/27 09:10:01;;;;;;;;;20.00;20.00;;;;;14.94;66.46;102229.59;4941663;28;46278;-60
2021/10/27 10:05:07;;;;;;;;;33.75;27.25;;;;;15.31;64.61;102228.44;4943285;28;45258;-60
2021/10/27 10:07:34;;;;;;;;;35.75;32.25;;;;;15.33;64.94;102228.38;4941359;28;45350;-60
2021/10/27 10:10:03;;;;;;;;;35.75;30.50;;;;;15.36;64.81;102228.19;4942226;28;45319;-60
2021/10/27 10:12:40;;;;;;;;;38.50;29.75;;;;;15.41;64.67;102228.78;4944287;28;45452;-60
2021/10/27 10:15:06;;;;;;;;;35.25;32.50;;;;;15.45;64.20;102232.13;4948643;28;45345;-61
2021/10/27 10:17:43;;;;;;;;;32.50;29.75;;;;;15.45;64.19;102237.44;4954134;28;45385;-61
2021/10/27 10:20:14;;;;;;;;;34.25;31.75;;;;;15.48;64.33;102232.81;4949598;28;45496;-60
2021/10/27 10:22:41;;;;;;;;;38.25;29.75;;;;;15.52;64.69;102222.88;4955990;28;45436;-61
2021/10/27 10:25:19;;;;;;;;;40.00;32.25;;;;;15.52;64.30;102231.69;4956704;28;45390;-60
2021/10/27 10:27:56;;;;;;;;;43.75;31.50;;;;;15.54;64.07;102236.91;4945321;28;45257;-61
2021/10/27 10:31:01;;;;;;;;;45.00;35.00;;;;;15.55;64.27;102230.66;4945524;28;45219;-61
2021/10/27 10:33:44;;;;;;;;;46.00;32.25;;;;;15.58;64.32;102230.50;4945480;28;45254;-60
2021/10/27 10:36:26;;;;;;;;;33.00;32.00;;;;;15.60;64.31;102244.53;4944995;28;45425;-60
2021/10/27 11:24:58;;;;;;;;;41.50;32.75;;;;;15.93;64.27;102195.75;4944479;28;45274;-60
2021/10/27 11:37:20;;;;;;;;;28.00;25.50;;;;;16.10;64.00;102179.66;4943416;28;45339;-60
2021/10/27 11:38:52;;;;;;;;;29.75;26.50;;;;;16.19;63.46;102165.81;4944001;28;45338;-59
2021/10/27 11:41:26;;;;;;;;;24.00;22.75;;;;;16.22;63.18;102170.97;4943980;28;45322;-59
2021/10/27 11:44:10;;;;;;;;;27.25;25.50;;;;;16.26;63.13;102166.31;4944325;28;46386;-60
2021/10/27 11:46:55;;;;;;;;;32.50;26.50;;;;;16.30;62.80;102167.84;4944113;28;45406;-60
2021/10/27 11:49:25;;;;;;;;;27.25;23.00;;;;;16.32;62.70;102172.13;4944257;28;45255;-61
2021/10/27 11:51:58;;;;;;;;;18.00;15.00;;;;;16.36;62.52;102167.47;4944226;28;45522;-60
2021/10/27 11:54:27;;;;;;;;;16.25;15.25;;;;;16.40;62.48;102155.69;4943817;28;45408;-60
2021/10/27 11:56:54;;;;;;;;;14.00;13.25;;;;;16.44;62.17;102159.88;4944033;28;45359;-60
2021/10/27 11:59:20;;;;;;;;;20.50;18.25;;;;;16.50;62.40;102151.50;4944068;28;45315;-60
2021/10/27 12:01:53;;;;;;;;;14.00;14.00;;;;;16.56;62.02;102148.47;4944238;28;45262;-60
2021/10/27 12:04:20;;;;;;;;;14.50;13.00;;;;;16.58;61.65;102145.72;4943837;28;45470;-59
2021/10/27 12:07:02;;;;;;;;;12.25;11.00;;;;;16.60;61.64;102142.03;4943626;28;45272;-59
2021/10/27 12:18:10;;;;;;;;;18.50;15.00;;;;;16.78;61.05;102117.91;4960675;28;45315;-59
2021/10/27 12:20:45;;;;;;;;;13.25;10.25;;;;;16.81;60.98;102115.03;4931773;28;45419;-59
2021/10/27 12:23:25;;;;;;;;;15.50;9.50;;;;;16.83;60.74;102116.66;4942114;28;45521;-60
2021/10/27 12:25:53;;;;;;;;;6.00;6.00;;;;;16.86;60.84;102107.63;4943748;28;45255;-59
2021/10/27 12:28:32;;;;;;;;;10.75;9.75;;;;;16.92;60.52;102102.78;4943488;28;45299;-59
2021/10/27 12:31:14;;;;;;;;;10.25;9.25;;;;;16.96;60.39;102104.25;4943648;28;45326;-59
2021/10/27 12:33:42;;;;;;;;;9.25;7.00;;;;;17.00;60.33;102094.28;4943669;28;45244;-59
2021/10/27 12:36:34;;;;;;;;;7.50;7.50;;;;;17.01;60.06;102094.19;4943117;28;45485;-59
2021/10/27 12:39:21;;;;;;;;;9.00;7.75;;;;;17.06;60.00;102082.38;4943364;28;45330;-59
2021/10/27 12:42:07;;;;;;;;;7.00;7.00;;;;;17.11;59.87;102086.44;4943497;28;45413;-60
2021/10/27 12:44:35;;;;;;;;;9.75;8.00;;;;;17.15;59.76;102077.31;4943108;28;45400;-60
2021/10/27 12:47:12;;;;;;;;;10.00;7.50;;;;;17.21;59.61;102074.22;4943031;28;46160;-60
2021/10/27 12:49:39;;;;;;;;;9.00;6.75;;;;;17.25;59.58;102073.09;4943174;28;45316;-60
2021/10/27 12:52:26;;;;;;;;;10.00;7.25;;;;;17.28;59.30;102070.22;4943357;28;45280;-60
2021/10/27 12:55:14;;;;;;;;;8.00;7.25;;;;;17.31;59.42;102066.50;4943382;28;45513;-61
2021/10/27 12:57:46;;;;;;;;;7.50;6.50;;;;;17.28;59.20;102062.22;4931242;28;45386;-60
2021/10/27 13:00:29;;;;;;;;;10.00;7.75;;;;;17.30;59.58;102059.47;4943163;28;45452;-60
2021/10/27 13:03:23;;;;;;;;;10.50;8.75;;;;;17.32;59.29;102059.38;4943209;28;45474;-61
2021/10/27 13:06:00;;;;;;;;;8.75;7.25;;;;;17.32;59.32;102060.22;4943068;28;45244;-61
2021/10/27 13:19:03;;;;;;;;;8.50;7.00;;;;;17.32;59.64;102040.72;4942805;28;46041;-60
2021/10/27 13:32:14;;;;;;;;;16.25;9.00;;;;;17.35;59.80;102016.53;4942736;28;45337;-60
2021/10/27 13:34:40;;;;;;;;;8.50;7.00;;;;;17.37;60.09;102012.81;4942700;28;45306;-60
2021/10/27 13:37:09;;;;;;;;;15.00;11.50;;;;;17.38;59.95;102009.22;4942494;28;45240;-60
2021/10/27 13:39:36;;;;;;;;;8.00;8.00;;;;;17.37;59.97;102007.47;4942662;28;45493;-61
2021/10/27 13:42:12;;;;;;;;;13.00;10.25;;;;;17.37;60.02;102011.94;4942333;28;45341;-60
2021/10/27 13:44:51;;;;;;;;;12.25;8.00;;;;;17.39;59.88;102010.91;4942508;28;45325;-60
2021/10/27 13:47:27;;;;;;;;;9.50;8.50;;;;;17.39;59.76;102008.25;4942428;28;45336;-59
2021/10/27 14:09:19;;;;;;;;;7.50;7.50;;;;;17.59;59.59;101989.06;4947701;28;45387;-59
2021/10/27 14:14:36;;;;;;;;;12.25;9.50;;;;;17.62;59.81;101985.38;4948626;28;45262;-59
2021/10/27 15:19:49;;;;;;;;;7.25;5.75;;;;;17.55;58.38;101928.13;4944555;28;45373;-60
2021/10/27 15:25:24;;;;;;;;;5.00;4.00;;;;;17.56;58.84;101928.03;4944545;28;45383;-60
2021/10/27 15:32:44;;;;;;;;;8.00;7.00;;;;;17.54;58.85;101921.09;4944689;28;45292;-60
2021/10/27 15:43:18;;;;;;;;;6.00;5.25;;;;;17.52;59.01;101918.53;4944415;28;45534;-61
2021/10/27 15:51:13;;;;;;;;;7.00;5.75;;;;;17.46;58.97;101912.78;4943931;28;45351;-60
2021/10/27 15:53:40;;;;;;;;;7.75;7.75;;;;;17.43;58.44;101915.66;4944063;28;45292;-60
2021/10/27 15:56:06;;;;;;;;;7.00;6.00;;;;;17.41;58.53;101920.25;4944188;28;45217;-61
2021/10/27 15:58:31;;;;;;;;;13.75;11.25;;;;;17.39;58.51;101920.34;4943769;28;46054;-60
2021/10/27 16:00:57;;;;;;;;;13.50;8.25;;;;;17.37;58.62;101908.06;4944006;28;45235;-63
2021/10/27 16:03:22;;;;;;;;;9.75;8.00;;;;;17.34;58.80;101909.16;4944113;28;45318;-60
2021/10/27 16:05:50;;;;;;;;;6.50;6.50;;;;;17.30;58.75;101908.53;4944126;28;45543;-60
2021/10/27 16:08:21;;;;;;;;;8.75;7.00;;;;;17.27;58.72;101906.06;4943616;28;46024;-61
2021/10/27 16:10:50;;;;;;;;;6.75;4.00;;;;;17.25;59.05;101902.66;4943889;28;45310;-61
2021/10/27 16:13:16;;;;;;;;;9.00;6.00;;;;;17.23;58.95;101909.91;4943840;28;45235;-60